Time;durP1;ratioP1;P1;durP2;ratioP2;P2;SDS_P1;SDS_P2;PMS_P1;PMS_P2;Temp;Humidity;BMP_temperature;BMP_pressure;BME280_temperature;BME280_humidity;BME280_pressure;Samples;Min_cycle;Max_cycle;Signal;HPM_P1;HPM_P2
2023/04/30 00:01:27;;;;;;;16.80;10.60;;;;;;;-128.00;-1.00;-1.00;18887;288;7505287;-33
2023/04/30 00:03:53;;;;;;;22.40;12.20;;;;;;;-128.00;-1.00;-1.00;18875;298;7504966;-36
2023/04/30 00:06:19;;;;;;;18.90;13.90;;;;;;;-128.00;-1.00;-1.00;18872;296;7504552;-33
2023/04/30 00:08:45;;;;;;;23.70;14.10;;;;;;;-128.00;-1.00;-1.00;18880;296;7504412;-33
2023/04/30 00:11:11;;;;;;;23.70;14.40;;;;;;;-128.00;-1.00;-1.00;18892;296;7504304;-36
2023/04/30 00:13:37;;;;;;;25.60;14.40;;;;;;;-128.00;-1.00;-1.00;18864;349;7504857;-32
2023/04/30 00:16:04;;;;;;;21.90;12.90;;;;;;;-128.00;-1.00;-1.00;18899;348;7504334;-33
2023/04/30 00:18:29;;;;;;;17.00;11.60;;;;;;;-128.00;-1.00;-1.00;18435;300;7504332;-36
2023/04/30 00:20:55;;;;;;;20.70;12.30;;;;;;;-128.00;-1.00;-1.00;18860;296;7506135;-32
2023/04/30 00:23:21;;;;;;;19.00;13.00;;;;;;;-128.00;-1.00;-1.00;18864;296;7505193;-32
2023/04/30 00:25:48;;;;;;;15.90;12.00;;;;;;;-128.00;-1.00;-1.00;18872;288;7504389;-32
2023/04/30 00:28:14;;;;;;;20.80;14.00;;;;;;;-128.00;-1.00;-1.00;18896;288;7505629;-32
2023/04/30 00:30:40;;;;;;;20.30;13.10;;;;;;;-128.00;-1.00;-1.00;18878;296;7504548;-35
2023/04/30 00:33:06;;;;;;;18.80;12.30;;;;;;;-128.00;-1.00;-1.00;18846;296;7504879;-35
2023/04/30 00:35:32;;;;;;;23.00;11.00;;;;;;;-128.00;-1.00;-1.00;18876;296;7504570;-33
2023/04/30 00:37:58;;;;;;;18.80;10.30;;;;;;;-128.00;-1.00;-1.00;18869;288;7504241;-33
2023/04/30 00:40:25;;;;;;;14.00;10.40;;;;;;;-128.00;-1.00;-1.00;18868;296;7504998;-32
2023/04/30 00:42:54;;;;;;;13.90;9.10;;;;;;;-128.00;-1.00;-1.00;18502;288;7505052;-32
2023/04/30 00:45:21;;;;;;;13.10;7.00;;;;;;;-128.00;-1.00;-1.00;18502;348;7504633;-36
2023/04/30 00:47:47;;;;;;;23.30;10.80;;;;;;;-128.00;-1.00;-1.00;18453;296;7505841;-35
2023/04/30 00:50:14;;;;;;;16.30;9.00;;;;;;;-128.00;-1.00;-1.00;18467;296;7505086;-36
2023/04/30 00:52:41;;;;;;;29.30;10.00;;;;;;;-128.00;-1.00;-1.00;18470;297;7505981;-35
2023/04/30 00:55:08;;;;;;;15.80;10.90;;;;;;;-128.00;-1.00;-1.00;18474;289;7504929;-35
2023/04/30 00:57:35;;;;;;;11.30;6.90;;;;;;;-128.00;-1.00;-1.00;18481;289;7504909;-32
2023/04/30 01:00:01;;;;;;;19.70;10.30;;;;;;;-128.00;-1.00;-1.00;18481;289;7504472;-32
2023/04/30 01:02:27;;;;;;;12.00;10.00;;;;;;;-128.00;-1.00;-1.00;18475;349;7505354;-32
2023/04/30 01:04:54;;;;;;;15.00;9.70;;;;;;;-128.00;-1.00;-1.00;18874;289;7505290;-35
2023/04/30 01:07:20;;;;;;;16.50;10.00;;;;;;;-128.00;-1.00;-1.00;18465;348;7505730;-32
2023/04/30 01:09:46;;;;;;;24.50;10.60;;;;;;;-128.00;-1.00;-1.00;18483;289;7505528;-31
2023/04/30 01:12:18;;;;;;;11.70;8.50;;;;;;;-128.00;-1.00;-1.00;18460;296;7506257;-34
2023/04/30 01:15:03;;;;;;;14.50;7.50;;;;;;;-128.00;-1.00;-1.00;18496;285;7504533;-32
2023/04/30 01:17:50;;;;;;;10.20;7.20;;;;;;;-128.00;-1.00;-1.00;18467;298;7504447;-35
2023/04/30 01:20:16;;;;;;;12.50;9.30;;;;;;;-128.00;-1.00;-1.00;18474;289;7504321;-35
2023/04/30 01:22:47;;;;;;;19.70;6.40;;;;;;;-128.00;-1.00;-1.00;18461;289;7504654;-31
2023/04/30 01:25:34;;;;;;;11.40;7.40;;;;;;;-128.00;-1.00;-1.00;18484;296;7504738;-31
2023/04/30 01:28:14;;;;;;;12.70;6.30;;;;;;;-128.00;-1.00;-1.00;18501;289;7506329;-31
2023/04/30 01:30:40;;;;;;;13.80;7.90;;;;;;;-128.00;-1.00;-1.00;18508;296;7504631;-31
2023/04/30 01:33:06;;;;;;;18.20;9.90;;;;;;;-128.00;-1.00;-1.00;18478;296;7505348;-35
2023/04/30 01:35:58;;;;;;;16.20;8.00;;;;;;;-128.00;-1.00;-1.00;18469;298;7507469;-34
2023/04/30 01:38:36;;;;;;;12.60;8.30;;;;;;;-128.00;-1.00;-1.00;18509;296;7504607;-35
2023/04/30 01:41:10;;;;;;;15.30;8.60;;;;;;;-128.00;-1.00;-1.00;18485;285;7505103;-34
2023/04/30 01:43:58;;;;;;;10.80;7.90;;;;;;;-128.00;-1.00;-1.00;18467;296;7504702;-30
2023/04/30 01:46:30;;;;;;;9.50;7.00;;;;;;;-128.00;-1.00;-1.00;18460;296;7506046;-35
2023/04/30 01:49:19;;;;;;;17.20;9.20;;;;;;;-128.00;-1.00;-1.00;18467;296;7506469;-34
2023/04/30 01:51:46;;;;;;;13.40;7.00;;;;;;;-128.00;-1.00;-1.00;18476;289;7504909;-35
2023/04/30 01:54:26;;;;;;;9.70;7.20;;;;;;;-128.00;-1.00;-1.00;18474;289;7505668;-31
2023/04/30 01:57:02;;;;;;;9.30;7.60;;;;;;;-128.00;-1.00;-1.00;18494;336;7505784;-30
2023/04/30 01:59:29;;;;;;;15.30;9.60;;;;;;;-128.00;-1.00;-1.00;18448;349;7504809;-31
2023/04/30 02:01:55;;;;;;;15.00;8.90;;;;;;;-128.00;-1.00;-1.00;18491;348;7507213;-31
2023/04/30 02:04:21;;;;;;;12.70;8.20;;;;;;;-128.00;-1.00;-1.00;18896;348;7504350;-34
2023/04/30 02:06:47;;;;;;;14.00;9.20;;;;;;;-128.00;-1.00;-1.00;18871;296;7504379;-34
2023/04/30 02:09:14;;;;;;;14.00;8.50;;;;;;;-128.00;-1.00;-1.00;18908;285;7505051;-32
2023/04/30 02:11:40;;;;;;;17.40;9.80;;;;;;;-128.00;-1.00;-1.00;18882;324;7504982;-34
2023/04/30 02:14:06;;;;;;;13.90;9.40;;;;;;;-128.00;-1.00;-1.00;18891;308;7505413;-35
2023/04/30 02:16:32;;;;;;;18.40;9.20;;;;;;;-128.00;-1.00;-1.00;18477;304;7504784;-31
2023/04/30 02:18:58;;;;;;;18.00;8.30;;;;;;;-128.00;-1.00;-1.00;18493;340;7504973;-31
2023/04/30 02:21:25;;;;;;;12.30;6.90;;;;;;;-128.00;-1.00;-1.00;18845;296;7504521;-32
2023/04/30 02:23:51;;;;;;;14.40;6.20;;;;;;;-128.00;-1.00;-1.00;18453;339;7505103;-31
2023/04/30 02:26:17;;;;;;;10.40;7.00;;;;;;;-128.00;-1.00;-1.00;18465;298;7504602;-31
2023/04/30 02:28:43;;;;;;;20.90;7.50;;;;;;;-128.00;-1.00;-1.00;18875;296;7504759;-31
2023/04/30 02:31:09;;;;;;;13.20;8.80;;;;;;;-128.00;-1.00;-1.00;18884;298;7504362;-31
2023/04/30 02:33:35;;;;;;;18.00;9.00;;;;;;;-128.00;-1.00;-1.00;18875;289;7505085;-31
2023/04/30 02:36:02;;;;;;;27.50;9.80;;;;;;;-128.00;-1.00;-1.00;18864;298;7505007;-35
2023/04/30 02:38:28;;;;;;;11.30;7.80;;;;;;;-128.00;-1.00;-1.00;18469;296;7504952;-31
2023/04/30 02:40:54;;;;;;;19.00;7.30;;;;;;;-128.00;-1.00;-1.00;18891;296;7506169;-35
2023/04/30 02:43:20;;;;;;;11.70;8.80;;;;;;;-128.00;-1.00;-1.00;18490;297;7504647;-34
2023/04/30 02:45:47;;;;;;;11.70;8.20;;;;;;;-128.00;-1.00;-1.00;18872;285;7504940;-31
2023/04/30 02:48:12;;;;;;;10.20;7.80;;;;;;;-128.00;-1.00;-1.00;18478;296;7504295;-34
2023/04/30 02:50:38;;;;;;;12.30;7.70;;;;;;;-128.00;-1.00;-1.00;18445;296;7506218;-35
2023/04/30 02:53:04;;;;;;;9.90;6.70;;;;;;;-128.00;-1.00;-1.00;18459;338;7504530;-32
2023/04/30 02:55:31;;;;;;;12.00;8.20;;;;;;;-128.00;-1.00;-1.00;18872;296;7504164;-31
2023/04/30 02:57:57;;;;;;;18.70;7.20;;;;;;;-128.00;-1.00;-1.00;18489;285;7505073;-34
2023/04/30 03:00:23;;;;;;;13.50;8.80;;;;;;;-128.00;-1.00;-1.00;18451;296;7504420;-31
2023/04/30 03:02:48;;;;;;;10.70;7.70;;;;;;;-128.00;-1.00;-1.00;18467;289;7506685;-34
2023/04/30 03:05:15;;;;;;;12.80;8.00;;;;;;;-128.00;-1.00;-1.00;18853;296;7504979;-36
2023/04/30 03:07:41;;;;;;;12.50;7.60;;;;;;;-128.00;-1.00;-1.00;18865;306;7505270;-35
2023/04/30 03:10:08;;;;;;;23.40;9.30;;;;;;;-128.00;-1.00;-1.00;18881;285;7504298;-32
2023/04/30 03:12:34;;;;;;;14.20;8.20;;;;;;;-128.00;-1.00;-1.00;18443;299;7504728;-32
2023/04/30 03:15:00;;;;;;;10.30;7.70;;;;;;;-128.00;-1.00;-1.00;18476;289;7504534;-35
2023/04/30 03:17:26;;;;;;;10.80;7.80;;;;;;;-128.00;-1.00;-1.00;18876;285;7504264;-35
2023/04/30 03:19:52;;;;;;;13.50;8.80;;;;;;;-128.00;-1.00;-1.00;18886;285;7505108;-33
2023/04/30 03:22:22;;;;;;;17.50;9.10;;;;;;;-128.00;-1.00;-1.00;18854;319;7504902;-34
2023/04/30 03:24:48;;;;;;;10.10;7.70;;;;;;;-128.00;-1.00;-1.00;18491;296;7506532;-35
2023/04/30 03:27:15;;;;;;;18.80;7.60;;;;;;;-128.00;-1.00;-1.00;18469;285;7504418;-33
2023/04/30 03:29:41;;;;;;;15.00;8.60;;;;;;;-128.00;-1.00;-1.00;18468;285;7506004;-32
2023/04/30 03:32:07;;;;;;;14.10;9.30;;;;;;;-128.00;-1.00;-1.00;18466;296;7504807;-31
2023/04/30 03:34:33;;;;;;;15.10;9.90;;;;;;;-128.00;-1.00;-1.00;18873;289;7504347;-35
2023/04/30 03:37:00;;;;;;;12.40;8.60;;;;;;;-128.00;-1.00;-1.00;18888;296;7505654;-31
2023/04/30 03:39:26;;;;;;;13.70;8.50;;;;;;;-128.00;-1.00;-1.00;18451;349;7506942;-31
2023/04/30 03:41:52;;;;;;;11.60;7.50;;;;;;;-128.00;-1.00;-1.00;18458;306;7504851;-35
2023/04/30 03:44:18;;;;;;;11.30;8.70;;;;;;;-128.00;-1.00;-1.00;18899;296;7504826;-35
2023/04/30 03:46:44;;;;;;;19.20;9.50;;;;;;;-128.00;-1.00;-1.00;18866;298;7505277;-34
2023/04/30 03:49:10;;;;;;;14.90;10.00;;;;;;;-128.00;-1.00;-1.00;18859;296;7504879;-30
2023/04/30 03:51:40;;;;;;;15.70;9.70;;;;;;;-128.00;-1.00;-1.00;18880;285;7505261;-34
2023/04/30 03:54:06;;;;;;;11.30;7.20;;;;;;;-128.00;-1.00;-1.00;18475;289;7505003;-35
2023/04/30 03:56:32;;;;;;;14.20;8.00;;;;;;;-128.00;-1.00;-1.00;18454;289;7504374;-31
2023/04/30 03:58:58;;;;;;;11.40;8.10;;;;;;;-128.00;-1.00;-1.00;18497;285;7506000;-35
2023/04/30 04:01:24;;;;;;;9.30;7.10;;;;;;;-128.00;-1.00;-1.00;18469;289;7505033;-32
2023/04/30 04:03:50;;;;;;;9.50;7.00;;;;;;;-128.00;-1.00;-1.00;18477;285;7505015;-35
2023/04/30 04:06:15;;;;;;;13.70;8.60;;;;;;;-128.00;-1.00;-1.00;18484;298;7505281;-35
2023/04/30 04:08:42;;;;;;;13.60;8.60;;;;;;;-128.00;-1.00;-1.00;18878;322;7505410;-31
2023/04/30 04:11:09;;;;;;;11.50;8.90;;;;;;;-128.00;-1.00;-1.00;18472;289;7506799;-35
2023/04/30 04:13:34;;;;;;;17.50;9.50;;;;;;;-128.00;-1.00;-1.00;18490;289;7505003;-35
2023/04/30 04:16:01;;;;;;;18.40;7.90;;;;;;;-128.00;-1.00;-1.00;18897;285;7504656;-35
2023/04/30 04:18:27;;;;;;;13.40;9.30;;;;;;;-128.00;-1.00;-1.00;18885;298;7504676;-34
2023/04/30 04:20:54;;;;;;;11.50;9.20;;;;;;;-128.00;-1.00;-1.00;18899;296;7506214;-35
2023/04/30 04:23:21;;;;;;;12.20;8.10;;;;;;;-128.00;-1.00;-1.00;18474;289;7504360;-31
2023/04/30 04:25:48;;;;;;;19.40;9.70;;;;;;;-128.00;-1.00;-1.00;18480;289;7505666;-32
2023/04/30 04:28:15;;;;;;;19.30;10.10;;;;;;;-128.00;-1.00;-1.00;18461;289;7504821;-35
2023/04/30 04:30:42;;;;;;;16.30;7.20;;;;;;;-128.00;-1.00;-1.00;18457;296;7504458;-31
2023/04/30 04:33:10;;;;;;;13.70;10.00;;;;;;;-128.00;-1.00;-1.00;18477;285;7504389;-34
2023/04/30 04:35:36;;;;;;;15.90;8.30;;;;;;;-128.00;-1.00;-1.00;18465;348;7504380;-30
2023/04/30 04:38:01;;;;;;;17.20;9.30;;;;;;;-128.00;-1.00;-1.00;18421;299;7506428;-37
2023/04/30 05:19:35;;;;;;;14.00;9.80;;;;;;;-100.80;19.20;19933.38;98373;295;1544748;-29
2023/04/30 05:22:01;;;;;;;16.00;11.00;;;;;;;-128.00;-1.00;-1.00;78596;296;7503761;-35
2023/04/30 05:24:28;;;;;;;9.00;6.70;;;;;;;-128.00;-1.00;-1.00;18467;347;7504210;-31
2023/04/30 05:26:54;;;;;;;23.40;12.10;;;;;;;-128.00;-1.00;-1.00;18508;295;7506592;-36
2023/04/30 05:29:20;;;;;;;9.30;5.60;;;;;;;-128.00;-1.00;-1.00;18504;319;7504871;-36
2023/04/30 05:31:46;;;;;;;14.10;10.70;;;;;;;-128.00;-1.00;-1.00;18923;295;7504649;-36
2023/04/30 05:34:12;;;;;;;12.90;8.40;;;;;;;-128.00;-1.00;-1.00;18871;342;7504687;-36
2023/04/30 05:36:38;;;;;;;18.60;9.40;;;;;;;-128.00;-1.00;-1.00;18865;296;7505242;-32
2023/04/30 05:39:04;;;;;;;10.50;7.90;;;;;;;-128.00;-1.00;-1.00;18904;287;7505287;-36
2023/04/30 05:41:31;;;;;;;20.40;9.30;;;;;;;-128.00;-1.00;-1.00;18898;295;7504788;-35
2023/04/30 05:43:58;;;;;;;10.10;7.30;;;;;;;-128.00;-1.00;-1.00;18481;289;7505131;-36
2023/04/30 05:46:24;;;;;;;11.40;9.00;;;;;;;-128.00;-1.00;-1.00;18494;295;7504283;-31
2023/04/30 05:48:50;;;;;;;17.10;11.90;;;;;;;-128.00;-1.00;-1.00;18879;296;7504696;-36
2023/04/30 05:51:16;;;;;;;24.90;10.50;;;;;;;-128.00;-1.00;-1.00;18889;287;7505334;-35
2023/04/30 05:53:42;;;;;;;15.30;10.10;;;;;;;-128.00;-1.00;-1.00;18905;347;7504421;-32
2023/04/30 05:56:08;;;;;;;12.40;9.30;;;;;;;-128.00;-1.00;-1.00;18927;295;7504895;-31
2023/04/30 05:58:35;;;;;;;13.80;8.30;;;;;;;-128.00;-1.00;-1.00;18864;295;7504553;-31
2023/04/30 06:01:01;;;;;;;12.00;10.20;;;;;;;-128.00;-1.00;-1.00;18903;295;7504738;-35
2023/04/30 06:03:27;;;;;;;14.10;9.80;;;;;;;-128.00;-1.00;-1.00;18857;295;7504583;-35
2023/04/30 06:05:54;;;;;;;16.90;8.80;;;;;;;-128.00;-1.00;-1.00;18895;287;7504801;-34
2023/04/30 06:08:20;;;;;;;12.30;6.10;;;;;;;-128.00;-1.00;-1.00;18877;295;7504549;-37
2023/04/30 06:10:46;;;;;;;14.50;10.30;;;;;;;-128.00;-1.00;-1.00;18888;287;7504425;-32
2023/04/30 06:13:13;;;;;;;13.70;8.20;;;;;;;-128.00;-1.00;-1.00;18912;295;7504806;-31
2023/04/30 06:15:40;;;;;;;23.30;10.70;;;;;;;-128.00;-1.00;-1.00;18482;295;7505792;-36
2023/04/30 06:18:06;;;;;;;12.90;8.90;;;;;;;-128.00;-1.00;-1.00;18486;336;7506023;-36
2023/04/30 06:20:32;;;;;;;8.50;6.90;;;;;;;-128.00;-1.00;-1.00;18474;289;7506010;-36
2023/04/30 06:22:58;;;;;;;14.10;8.70;;;;;;;-128.00;-1.00;-1.00;18465;296;7505756;-31
2023/04/30 06:25:25;;;;;;;13.80;9.80;;;;;;;-128.00;-1.00;-1.00;18461;288;7505524;-35
2023/04/30 06:27:52;;;;;;;16.40;10.20;;;;;;;-128.00;-1.00;-1.00;18475;296;7506832;-31
2023/04/30 06:30:18;;;;;;;12.20;8.50;;;;;;;-128.00;-1.00;-1.00;18470;288;7505003;-32
2023/04/30 06:32:44;;;;;;;22.20;8.00;;;;;;;-128.00;-1.00;-1.00;18485;288;7505580;-36
2023/04/30 06:35:10;;;;;;;22.60;8.80;;;;;;;-128.00;-1.00;-1.00;18467;297;7506234;-35
2023/04/30 06:37:36;;;;;;;15.60;9.90;;;;;;;-128.00;-1.00;-1.00;18488;288;7504969;-30
2023/04/30 06:40:06;;;;;;;16.20;8.00;;;;;;;-128.00;-1.00;-1.00;18486;295;7504825;-31
2023/04/30 06:42:35;;;;;;;11.60;7.30;;;;;;;-128.00;-1.00;-1.00;18496;297;7505859;-30
2023/04/30 06:45:01;;;;;;;9.40;7.90;;;;;;;-128.00;-1.00;-1.00;18481;288;7504541;-35
2023/04/30 06:47:27;;;;;;;12.50;11.10;;;;;;;-128.00;-1.00;-1.00;18489;295;7506577;-32
2023/04/30 06:49:53;;;;;;;8.30;7.30;;;;;;;-128.00;-1.00;-1.00;18500;295;7506893;-35
2023/04/30 06:52:18;;;;;;;9.80;7.30;;;;;;;-128.00;-1.00;-1.00;18502;295;7504603;-31
2023/04/30 06:54:44;;;;;;;8.80;7.30;;;;;;;-128.00;-1.00;-1.00;18463;296;7506479;-35
2023/04/30 06:57:11;;;;;;;9.60;6.60;;;;;;;-128.00;-1.00;-1.00;18865;297;7504770;-31
2023/04/30 06:59:36;;;;;;;6.70;6.10;;;;;;;-128.00;-1.00;-1.00;18486;311;7505182;-31
2023/04/30 07:02:02;;;;;;;12.10;9.00;;;;;;;-128.00;-1.00;-1.00;18863;295;7504940;-34
2023/04/30 07:04:29;;;;;;;11.50;8.70;;;;;;;-128.00;-1.00;-1.00;18882;288;7504850;-31
2023/04/30 07:06:55;;;;;;;12.30;6.90;;;;;;;-128.00;-1.00;-1.00;18491;295;7504960;-31
2023/04/30 07:09:21;;;;;;;10.20;6.40;;;;;;;-128.00;-1.00;-1.00;18872;295;7506459;-35
2023/04/30 07:11:48;;;;;;;13.70;5.80;;;;;;;-128.00;-1.00;-1.00;18886;288;7505565;-32
2023/04/30 07:14:14;;;;;;;9.30;3.60;;;;;;;-128.00;-1.00;-1.00;18863;295;7505239;-35
2023/04/30 07:16:40;;;;;;;5.80;4.50;;;;;;;-128.00;-1.00;-1.00;18464;295;7504681;-31
2023/04/30 07:19:06;;;;;;;5.60;4.60;;;;;;;-128.00;-1.00;-1.00;18861;296;7504349;-36
2023/04/30 07:21:33;;;;;;;7.50;4.90;;;;;;;-128.00;-1.00;-1.00;18856;295;7504128;-32
2023/04/30 07:23:59;;;;;;;9.40;6.00;;;;;;;-128.00;-1.00;-1.00;18471;303;7506161;-35
2023/04/30 07:26:26;;;;;;;9.30;5.10;;;;;;;-128.00;-1.00;-1.00;18861;295;7504369;-31
2023/04/30 07:28:52;;;;;;;14.00;4.60;;;;;;;-128.00;-1.00;-1.00;18864;288;7505960;-31
2023/04/30 07:31:19;;;;;;;5.00;3.50;;;;;;;-128.00;-1.00;-1.00;18862;295;7504897;-31
2023/04/30 07:33:44;;;;;;;6.00;5.00;;;;;;;-128.00;-1.00;-1.00;18487;295;7504327;-35
2023/04/30 07:36:10;;;;;;;8.00;5.00;;;;;;;-128.00;-1.00;-1.00;18855;305;7503991;-35
2023/04/30 07:38:37;;;;;;;6.40;4.30;;;;;;;-128.00;-1.00;-1.00;18857;295;7504966;-31
2023/04/30 07:41:03;;;;;;;4.70;3.60;;;;;;;-128.00;-1.00;-1.00;18870;297;7504416;-35
2023/04/30 07:43:30;;;;;;;6.60;4.50;;;;;;;-128.00;-1.00;-1.00;18869;295;7505133;-31
2023/04/30 07:45:55;;;;;;;8.00;4.70;;;;;;;-128.00;-1.00;-1.00;18471;295;7504468;-32
2023/04/30 07:48:22;;;;;;;7.70;4.20;;;;;;;-128.00;-1.00;-1.00;18842;295;7506642;-36
2023/04/30 07:50:48;;;;;;;8.00;4.20;;;;;;;-128.00;-1.00;-1.00;18873;295;7505164;-32
2023/04/30 07:53:14;;;;;;;3.60;2.10;;;;;;;-128.00;-1.00;-1.00;18894;295;7504615;-32
2023/04/30 07:55:41;;;;;;;6.20;3.80;;;;;;;-128.00;-1.00;-1.00;18887;308;7504861;-36
2023/04/30 07:58:07;;;;;;;5.30;3.80;;;;;;;-128.00;-1.00;-1.00;18877;296;7504676;-36
2023/04/30 08:00:33;;;;;;;4.50;3.90;;;;;;;-128.00;-1.00;-1.00;18457;295;7504932;-32
2023/04/30 08:02:59;;;;;;;13.10;3.90;;;;;;;-128.00;-1.00;-1.00;18490;295;7505763;-37
2023/04/30 08:05:25;;;;;;;5.70;3.00;;;;;;;-128.00;-1.00;-1.00;18490;295;7504487;-32
2023/04/30 08:07:52;;;;;;;11.60;2.80;;;;;;;-128.00;-1.00;-1.00;18474;304;7506100;-36
2023/04/30 08:10:17;;;;;;;9.70;2.90;;;;;;;-128.00;-1.00;-1.00;18466;288;7504480;-37
2023/04/30 08:12:44;;;;;;;8.50;3.50;;;;;;;-128.00;-1.00;-1.00;18867;295;7504750;-37
2023/04/30 08:15:10;;;;;;;3.50;2.80;;;;;;;-128.00;-1.00;-1.00;18479;288;7505437;-32
2023/04/30 08:17:35;;;;;;;6.90;3.90;;;;;;;-128.00;-1.00;-1.00;18481;295;7506005;-36
2023/04/30 08:20:05;;;;;;;4.90;2.10;;;;;;;-128.00;-1.00;-1.00;18473;295;7504922;-33
2023/04/30 08:22:31;;;;;;;4.10;2.70;;;;;;;-128.00;-1.00;-1.00;18476;288;7504693;-37
2023/04/30 08:24:57;;;;;;;6.20;3.50;;;;;;;-128.00;-1.00;-1.00;18473;348;7506250;-33
2023/04/30 08:27:23;;;;;;;4.20;3.30;;;;;;;-128.00;-1.00;-1.00;18515;288;7506226;-37
2023/04/30 08:29:49;;;;;;;4.90;2.70;;;;;;;-128.00;-1.00;-1.00;18832;295;7505227;-36
2023/04/30 08:32:17;;;;;;;5.30;3.20;;;;;;;-128.00;-1.00;-1.00;18877;288;7504784;-32
2023/04/30 08:34:43;;;;;;;4.50;2.70;;;;;;;-128.00;-1.00;-1.00;18470;320;7506689;-32
2023/04/30 08:37:09;;;;;;;7.60;2.40;;;;;;;-128.00;-1.00;-1.00;18869;288;7504393;-32
2023/04/30 08:39:35;;;;;;;5.50;2.70;;;;;;;-128.00;-1.00;-1.00;18886;295;7504865;-36
2023/04/30 08:42:02;;;;;;;4.20;2.80;;;;;;;-128.00;-1.00;-1.00;18900;289;7504578;-35
2023/04/30 08:44:28;;;;;;;8.30;3.60;;;;;;;-128.00;-1.00;-1.00;18471;308;7505210;-34
2023/04/30 08:46:55;;;;;;;5.40;2.80;;;;;;;-128.00;-1.00;-1.00;18466;296;7504421;-30
2023/04/30 08:49:21;;;;;;;5.00;2.30;;;;;;;-128.00;-1.00;-1.00;18446;297;7504730;-30
2023/04/30 08:51:47;;;;;;;2.90;2.30;;;;;;;-128.00;-1.00;-1.00;18479;296;7504508;-34
2023/04/30 08:54:13;;;;;;;6.50;1.20;;;;;;;-128.00;-1.00;-1.00;18866;288;7504644;-30
2023/04/30 08:56:40;;;;;;;5.50;3.50;;;;;;;-128.00;-1.00;-1.00;18877;296;7504698;-34
2023/04/30 08:59:06;;;;;;;4.30;2.50;;;;;;;-128.00;-1.00;-1.00;18474;288;7504285;-31
2023/04/30 09:01:33;;;;;;;4.60;3.80;;;;;;;-128.00;-1.00;-1.00;18483;348;7504914;-32
2023/04/30 09:03:59;;;;;;;6.40;3.90;;;;;;;-128.00;-1.00;-1.00;18466;288;7505825;-32
2023/04/30 09:06:24;;;;;;;14.60;3.90;;;;;;;-128.00;-1.00;-1.00;18478;296;7504666;-35
2023/04/30 09:08:51;;;;;;;4.20;2.20;;;;;;;-128.00;-1.00;-1.00;18465;348;7507072;-32
2023/04/30 09:11:27;;;;;;;10.20;3.00;;;;;;;-128.00;-1.00;-1.00;18468;296;7505060;-36
2023/04/30 09:14:00;;;;;;;4.80;2.60;;;;;;;-128.00;-1.00;-1.00;18465;296;7504483;-35
2023/04/30 09:16:28;;;;;;;6.90;3.40;;;;;;;-128.00;-1.00;-1.00;18488;296;7505791;-32
2023/04/30 09:18:55;;;;;;;5.00;1.80;;;;;;;-128.00;-1.00;-1.00;18473;296;7504389;-36
2023/04/30 09:21:33;;;;;;;3.00;1.50;;;;;;;-128.00;-1.00;-1.00;18471;296;7504785;-32
2023/04/30 09:24:00;;;;;;;11.60;2.80;;;;;;;-128.00;-1.00;-1.00;18490;296;7505076;-41
2023/04/30 09:26:34;;;;;;;4.40;2.10;;;;;;;-128.00;-1.00;-1.00;18463;297;7506563;-32
2023/04/30 09:29:00;;;;;;;3.50;2.30;;;;;;;-128.00;-1.00;-1.00;18450;296;7504653;-32
2023/04/30 09:31:26;;;;;;;3.40;2.70;;;;;;;-128.00;-1.00;-1.00;18465;296;7506483;-36
2023/04/30 09:33:52;;;;;;;3.10;2.00;;;;;;;-128.00;-1.00;-1.00;18459;297;7505679;-36
2023/04/30 09:36:19;;;;;;;7.20;3.50;;;;;;;-128.00;-1.00;-1.00;18479;297;7505996;-32
2023/04/30 09:38:45;;;;;;;6.70;3.60;;;;;;;-128.00;-1.00;-1.00;18472;296;7504878;-36
2023/04/30 09:41:18;;;;;;;4.60;2.20;;;;;;;-128.00;-1.00;-1.00;18463;296;7504456;-32
2023/04/30 09:43:44;;;;;;;2.80;1.80;;;;;;;-128.00;-1.00;-1.00;18462;296;7506255;-36
2023/04/30 09:46:10;;;;;;;5.90;2.80;;;;;;;-128.00;-1.00;-1.00;18491;288;7505688;-36
2023/04/30 09:48:35;;;;;;;3.30;2.60;;;;;;;-128.00;-1.00;-1.00;18448;296;7506438;-36
2023/04/30 09:51:02;;;;;;;3.70;1.90;;;;;;;-128.00;-1.00;-1.00;18855;296;7504361;-32
2023/04/30 09:53:28;;;;;;;4.70;2.90;;;;;;;-128.00;-1.00;-1.00;18898;289;7504662;-36
2023/04/30 09:55:54;;;;;;;3.00;1.80;;;;;;;-128.00;-1.00;-1.00;18879;295;7504819;-35
2023/04/30 09:58:21;;;;;;;2.80;1.90;;;;;;;-128.00;-1.00;-1.00;18848;320;7505174;-36
2023/04/30 10:00:48;;;;;;;2.60;1.80;;;;;;;-128.00;-1.00;-1.00;18873;296;7504986;-34
2023/04/30 10:03:14;;;;;;;5.20;2.80;;;;;;;-128.00;-1.00;-1.00;18454;297;7504653;-32
2023/04/30 10:05:43;;;;;;;4.60;2.30;;;;;;;-128.00;-1.00;-1.00;18491;295;7504896;-35
2023/04/30 10:08:30;;;;;;;10.40;2.80;;;;;;;-128.00;-1.00;-1.00;18475;288;7505786;-35
2023/04/30 10:11:02;;;;;;;2.20;2.00;;;;;;;-128.00;-1.00;-1.00;18472;308;7504404;-35
2023/04/30 10:13:30;;;;;;;11.10;1.50;;;;;;;-128.00;-1.00;-1.00;18461;295;7504186;-35
2023/04/30 10:15:58;;;;;;;3.80;2.70;;;;;;;-128.00;-1.00;-1.00;18442;297;7504907;-35
2023/04/30 10:18:27;;;;;;;2.70;1.90;;;;;;;-128.00;-1.00;-1.00;18461;297;7505132;-35
2023/04/30 10:20:53;;;;;;;1.90;1.50;;;;;;;-128.00;-1.00;-1.00;18468;285;7504467;-36
2023/04/30 10:23:20;;;;;;;6.70;2.90;;;;;;;-128.00;-1.00;-1.00;18474;297;7506158;-35
2023/04/30 10:25:47;;;;;;;4.80;2.30;;;;;;;-128.00;-1.00;-1.00;18462;295;7504732;-35
2023/04/30 10:28:13;;;;;;;4.50;3.40;;;;;;;-128.00;-1.00;-1.00;18468;288;7504656;-31
2023/04/30 10:30:40;;;;;;;2.70;2.50;;;;;;;-128.00;-1.00;-1.00;18452;288;7504436;-35
2023/04/30 10:33:18;;;;;;;7.40;1.20;;;;;;;-128.00;-1.00;-1.00;18474;288;7506493;-35
2023/04/30 10:35:48;;;;;;;2.90;2.30;;;;;;;-128.00;-1.00;-1.00;18464;296;7505439;-35
2023/04/30 10:38:20;;;;;;;5.90;1.60;;;;;;;-128.00;-1.00;-1.00;18472;312;7505242;-37
2023/04/30 10:40:46;;;;;;;2.10;1.50;;;;;;;-128.00;-1.00;-1.00;18488;348;7504536;-36
2023/04/30 10:43:12;;;;;;;5.80;2.20;;;;;;;-128.00;-1.00;-1.00;18448;323;7504453;-31
2023/04/30 10:45:42;;;;;;;3.40;2.10;;;;;;;-128.00;-1.00;-1.00;18481;295;7505284;-31
2023/04/30 10:48:09;;;;;;;2.40;1.90;;;;;;;-128.00;-1.00;-1.00;18444;296;7504836;-31
2023/04/30 10:50:39;;;;;;;3.70;1.20;;;;;;;-128.00;-1.00;-1.00;18517;295;7506037;-35
2023/04/30 10:53:05;;;;;;;3.90;1.40;;;;;;;-128.00;-1.00;-1.00;18466;288;7505836;-35
2023/04/30 10:55:31;;;;;;;3.10;1.10;;;;;;;-128.00;-1.00;-1.00;18480;347;7506049;-31
2023/04/30 10:57:57;;;;;;;2.30;1.80;;;;;;;-128.00;-1.00;-1.00;18457;296;7505601;-32
2023/04/30 11:00:25;;;;;;;3.60;1.80;;;;;;;-128.00;-1.00;-1.00;18479;288;7506118;-31
2023/04/30 11:02:54;;;;;;;1.60;1.30;;;;;;;-128.00;-1.00;-1.00;18491;295;7506052;-35
2023/04/30 11:05:21;;;;;;;2.70;1.30;;;;;;;-128.00;-1.00;-1.00;18491;296;7504535;-31
2023/04/30 11:07:51;;;;;;;2.30;1.80;;;;;;;-128.00;-1.00;-1.00;18464;320;7504299;-36
2023/04/30 11:48:48;;;;;;;1.90;1.10;;;;;;;-99.20;7.37;19961.47;98309;295;1543350;-32
2023/04/30 11:51:17;;;;;;;3.30;2.00;;;;;;;-128.00;-1.00;-1.00;97552;296;1002344;-31
2023/04/30 11:53:44;;;;;;;2.00;1.10;;;;;;;-128.00;-1.00;-1.00;97800;285;1002783;-30
2023/04/30 11:56:10;;;;;;;2.80;1.30;;;;;;;-128.00;-1.00;-1.00;98001;296;1004137;-30
2023/04/30 11:58:39;;;;;;;3.90;2.50;;;;;;;-128.00;-1.00;-1.00;97789;285;1004297;-30
2023/04/30 12:01:06;;;;;;;4.70;1.90;;;;;;;-128.00;-1.00;-1.00;97846;285;1003122;-32
2023/04/30 12:03:32;;;;;;;4.50;1.60;;;;;;;-128.00;-1.00;-1.00;97927;285;1004757;-35
2023/04/30 12:06:01;;;;;;;4.90;2.10;;;;;;;-128.00;-1.00;-1.00;97934;285;1003850;-30
2023/04/30 12:08:27;;;;;;;3.80;0.90;;;;;;;-128.00;-1.00;-1.00;97864;285;1003195;-31
2023/04/30 12:10:53;;;;;;;1.40;1.20;;;;;;;-128.00;-1.00;-1.00;97935;285;1003937;-35
2023/04/30 12:13:19;;;;;;;2.60;0.90;;;;;;;-128.00;-1.00;-1.00;97959;296;1003153;-31
2023/04/30 12:15:57;;;;;;;2.10;0.70;;;;;;;-128.00;-1.00;-1.00;97810;285;1003298;-35
2023/04/30 12:18:22;;;;;;;1.00;0.80;;;;;;;-128.00;-1.00;-1.00;97820;296;1003547;-32
2023/04/30 12:20:48;;;;;;;4.60;0.70;;;;;;;-128.00;-1.00;-1.00;97911;285;1003168;-35
2023/04/30 12:23:14;;;;;;;2.50;1.10;;;;;;;-128.00;-1.00;-1.00;97953;296;1003070;-35
2023/04/30 12:25:41;;;;;;;2.10;1.10;;;;;;;-128.00;-1.00;-1.00;97822;285;1003945;-35
2023/04/30 12:28:07;;;;;;;4.20;1.30;;;;;;;-128.00;-1.00;-1.00;97877;285;1002695;-36
2023/04/30 12:30:33;;;;;;;5.90;0.90;;;;;;;-128.00;-1.00;-1.00;97937;296;1003405;-35
2023/04/30 12:32:58;;;;;;;4.60;1.50;;;;;;;-128.00;-1.00;-1.00;97849;285;1003165;-30
2023/04/30 12:35:27;;;;;;;4.50;1.10;;;;;;;-128.00;-1.00;-1.00;97925;285;1002958;-30
2023/04/30 12:38:00;;;;;;;3.40;1.40;;;;;;;-128.00;-1.00;-1.00;97816;296;1004163;-34
2023/04/30 12:40:26;;;;;;;;;;;;;;;-128.00;-1.00;-1.00;97941;285;1004832;-30
2023/04/30 12:42:56;;;;;;;3.20;0.80;;;;;;;-128.00;-1.00;-1.00;97869;296;1004662;-30
2023/04/30 12:45:28;;;;;;;1.30;0.80;;;;;;;-128.00;-1.00;-1.00;97899;296;1003720;-30